• Join FlightAware (Why Join?)
  • Login
  • US Flag 
07:12PM EDT


 

Airport Tracker/Info


-or-


 

Live Flight TrackerFlight Track Log ✈ ASQ5678 ✈ 16-Aug-2013 ✈ KLFT - KIAH

Flight Track Log - Related Links

Times and Time Zones

All times are in EDT time to prevent confusion due to time zone crossing. See the ASQ5678 flight status page for this flight to view local times or setup timezone preferences in your user account.

Time Position Orientation Groundspeed Altitude Reporting Facility
EDT Latitude Longitude Course Direction KTS MPH feet Rate Location/Type
03:23PM 30.0427 -92.1842 227° Southwest  Level FlightAware Approximate
03:24PM 30.0005 -92.2560 231° Southwest  Level FlightAware Approximate
03:24PM 30.2500 -92.1269 258° West 226 260 8,500  Level Houston Center
03:25PM 29.9508 -92.3256 231° Southwest  Level FlightAware Approximate
03:25PM 30.2286 -92.2233 256° West 257 296 10,600  Level Houston Center
03:26PM 29.9064 -92.3975 249° West  Level FlightAware Approximate
03:26PM 30.1725 -92.2942 228° Southwest 293 337 12,100  Level Houston Center
03:27PM 29.8539 -92.4744 227° Southwest  Level FlightAware Approximate
03:27PM 30.1333 -92.3847 243° Southwest 312 359 12,900  Level Houston Center
03:28PM 29.8018 -92.5527 235° Southwest  Level FlightAware Approximate
03:28PM 30.0933 -92.4869 246° West 344 396 13,900  Level Houston Center
03:29PM 30.0514 -92.5906 245° Southwest 354 407 15,000 960 Climbing Houston Center
03:30PM 30.0086 -92.6961 245° Southwest 360 414 16,000 960 Climbing Houston Center
03:31PM 29.9661 -92.8025 245° Southwest 364 419 17,000 900 Climbing Houston Center
03:32PM 29.9128 -92.9311 244° Southwest 369 425 17,900 480 Climbing Houston Center
03:33PM 29.8681 -93.0433 245° Southwest 382 440 18,000  Climbing Houston Center
03:34PM 29.8208 -93.1594 245° Southwest 395 455 18,000  Level Houston Center
03:35PM 29.7731 -93.2772 245° Southwest 403 464 18,000  Level Houston Center
03:36PM 29.7239 -93.3936 244° Southwest 404 465 18,000  Level Houston Center
03:37PM 29.6767 -93.5089 245° Southwest 398 458 18,000  Level Houston Center
03:38PM 29.6283 -93.6250 244° Southwest 400 460 18,000  Level Houston Center
03:39PM 29.5717 -93.7631 245° Southwest 399 459 18,000 -60 Level Houston Center
03:40PM 29.5242 -93.8781 245° Southwest 398 458 17,900 -960 Descending Houston Center
03:41PM 29.5211 -94.0050 268° West 396 456 16,100 -1,800 Descending Houston Center
03:42PM 29.5247 -94.1228 272° West 373 429 14,500 -1,380 Descending Houston Center
03:43PM 29.5303 -94.2425 273° West 356 410 13,300 -780 Descending Houston Center
03:44PM 29.5333 -94.3356 272° West 332 382 13,000 -540 Descending Houston Center
03:45PM 29.5728 -94.4364 294° West 338 389 12,400 -840 Descending Houston Center
03:46PM 29.6164 -94.5389 296° West 305 351 11,300 -1,020 Descending Houston Center
03:47PM 29.6442 -94.6075 295° West 287 330 10,500 -1,020 Descending Houston Center
03:48PM 29.6928 -94.6758 309° West 275 316 9,500 -1,080 Descending Houston Center
03:49PM 29.7558 -94.7400 319° Northwest 269 310 8,300 -1,080 Descending Houston Center
03:50PM 29.8119 -94.8003 317° Northwest 272 313 7,300 -1,020 Descending Houston Center
03:51PM 29.8608 -94.8497 319° Northwest 250 288 6,400 -1,140 Descending Houston Center
03:52PM 29.8939 -94.9300 295° West 264 304 5,100 -1,260 Descending Houston Center
03:53PM 29.9231 -94.9961 297° West 252 290 3,900 -1,200 Descending Houston Center
03:54PM 29.9600 -95.0761 298° West 263 303 2,800 -1,020 Descending Houston Center
03:55PM 29.9728 -95.1011 301° West 260 299 2,400 -720 Descending Houston Center
03:55PM 29.9867 -95.1597 285° West 253 291 2,000 -420 Descending Houston Center
03:56PM 29.9931 -95.2289 276° West 187 215 1,800 -600 Descending Houston Center
03:57PM 29.9936 -95.2794 271° West 142 163 900 -600 Descending Houston Center
03:59PM 29.9953 -95.3433 272° West 169 194 400 -360 Descending Houston Center